THA561 VVNB-VTBS
Flight info
| Callsign | THA561 |
|---|---|
| Flight time | N/A |
| Altitude | 36000 |
| Route | MC3A MC R474 CMP W21 NOBER NORTA1D |
| Aircraft | A320/M-SDE3FGHIRWY/LB1 |
Departure
| Time | 2026-05-09 08:45 |
|---|---|
| Airport | Noi Bai International Airport (VVNB) |
Arrival
| Time | N/A |
|---|---|
| Airport | Suvarnabhumi Airport (VTBS) |
| Time | Latitude | Longitude | Altitude | Speed | Heading |
|---|---|---|---|---|---|
| 2026-05-09 08:21 | 21.21937 | 105.79161 | 49 ft | 0 kts | 198° |
| 2026-05-09 08:37 | 21.21941 | 105.79162 | 49 ft | 2 kts | 198° |
| 2026-05-09 08:37 | 21.21959 | 105.79169 | 46 ft | 3 kts | 200° |
| 2026-05-09 08:38 | 21.21978 | 105.79177 | 49 ft | 3 kts | 203° |
| 2026-05-09 08:38 | 21.21997 | 105.79186 | 48 ft | 3 kts | 207° |
| 2026-05-09 08:38 | 21.22014 | 105.79196 | 49 ft | 3 kts | 217° |
| 2026-05-09 08:38 | 21.22028 | 105.79210 | 49 ft | 3 kts | 243° |
| 2026-05-09 08:39 | 21.22033 | 105.79224 | 49 ft | 1 kts | 285° |
| 2026-05-09 08:39 | 21.22032 | 105.79226 | 49 ft | 0 kts | 287° |
| 2026-05-09 08:40 | 21.22033 | 105.79225 | 49 ft | 1 kts | 287° |
| 2026-05-09 08:41 | 21.22037 | 105.79211 | 49 ft | 3 kts | 287° |
| 2026-05-09 08:41 | 21.22046 | 105.79179 | 49 ft | 6 kts | 287° |
| 2026-05-09 08:41 | 21.22076 | 105.79144 | 47 ft | 8 kts | 341° |
| 2026-05-09 08:41 | 21.22136 | 105.79136 | 48 ft | 10 kts | 335° |
| 2026-05-09 08:42 | 21.22172 | 105.79063 | 48 ft | 13 kts | 286° |
| 2026-05-09 08:42 | 21.22200 | 105.78962 | 50 ft | 15 kts | 288° |
| 2026-05-09 08:42 | 21.22236 | 105.78843 | 50 ft | 18 kts | 288° |
| 2026-05-09 08:42 | 21.22276 | 105.78706 | 50 ft | 15 kts | 285° |
| 2026-05-09 08:43 | 21.22323 | 105.78610 | 48 ft | 16 kts | 337° |
| 2026-05-09 08:43 | 21.22435 | 105.78637 | 51 ft | 17 kts | 19° |
| 2026-05-09 08:43 | 21.22439 | 105.78727 | 49 ft | 14 kts | 107° |
| 2026-05-09 08:43 | 21.22411 | 105.78837 | 50 ft | 17 kts | 106° |
| 2026-05-09 08:44 | 21.22375 | 105.78969 | 51 ft | 19 kts | 106° |
| 2026-05-09 08:44 | 21.22332 | 105.79115 | 51 ft | 23 kts | 104° |
| 2026-05-09 08:44 | 21.22405 | 105.79241 | 49 ft | 23 kts | 19° |
| 2026-05-09 08:44 | 21.22496 | 105.79344 | 49 ft | 22 kts | 96° |
| 2026-05-09 08:45 | 21.22414 | 105.79664 | 47 ft | 84 kts | 107° |
| 2026-05-09 08:45 | 21.22179 | 105.80478 | 48 ft | 141 kts | 106° |
| 2026-05-09 08:45 | 21.21961 | 105.81216 | 58 ft | 170 kts | 107° |
| 2026-05-09 08:45 | 21.21614 | 105.82401 | 720 ft | 165 kts | 107° |
| 2026-05-09 08:46 | 21.21159 | 105.83976 | 1530 ft | 170 kts | 107° |
| 2026-05-09 08:46 | 21.20918 | 105.84813 | 1725 ft | 185 kts | 106° |
| 2026-05-09 08:46 | 21.20517 | 105.86209 | 2011 ft | 209 kts | 106° |
| 2026-05-09 08:46 | 21.20064 | 105.87783 | 2395 ft | 233 kts | 107° |
| 2026-05-09 08:47 | 21.19561 | 105.89523 | 2878 ft | 255 kts | 106° |
| 2026-05-09 08:47 | 21.19025 | 105.91376 | 3687 ft | 264 kts | 106° |
| 2026-05-09 08:47 | 21.18478 | 105.93268 | 4631 ft | 269 kts | 107° |
| 2026-05-09 08:47 | 21.17915 | 105.95189 | 5605 ft | 272 kts | 109° |
| 2026-05-09 08:48 | 21.17002 | 105.96969 | 6471 ft | 277 kts | 130° |
| 2026-05-09 08:48 | 21.15493 | 105.98260 | 7325 ft | 282 kts | 153° |
| 2026-05-09 08:48 | 21.13602 | 105.98834 | 8149 ft | 286 kts | 176° |
| 2026-05-09 08:48 | 21.11606 | 105.98696 | 8959 ft | 290 kts | 186° |
| 2026-05-09 08:49 | 21.09592 | 105.98452 | 9747 ft | 293 kts | 186° |
| 2026-05-09 08:49 | 21.07554 | 105.98208 | 10515 ft | 297 kts | 186° |
| 2026-05-09 08:49 | 21.05432 | 105.97961 | 10810 ft | 318 kts | 186° |
| 2026-05-09 08:49 | 21.03159 | 105.97699 | 11076 ft | 337 kts | 186° |
| 2026-05-09 08:50 | 21.00805 | 105.97407 | 11640 ft | 344 kts | 190° |
| 2026-05-09 08:50 | 20.98516 | 105.96644 | 12277 ft | 347 kts | 206° |
| 2026-05-09 08:50 | 20.96496 | 105.95216 | 12930 ft | 351 kts | 223° |
| 2026-05-09 08:50 | 20.94993 | 105.93164 | 13559 ft | 354 kts | 242° |
| 2026-05-09 08:51 | 20.94065 | 105.90705 | 14171 ft | 359 kts | 250° |
| 2026-05-09 08:51 | 20.93225 | 105.88182 | 14783 ft | 362 kts | 250° |
| 2026-05-09 08:51 | 20.92388 | 105.85629 | 15370 ft | 365 kts | 251° |
| 2026-05-09 08:51 | 20.91551 | 105.83052 | 15943 ft | 369 kts | 251° |
| 2026-05-09 08:52 | 20.90705 | 105.80452 | 16506 ft | 372 kts | 250° |
| 2026-05-09 08:52 | 20.89844 | 105.77827 | 17056 ft | 375 kts | 250° |
| 2026-05-09 08:52 | 20.88970 | 105.75182 | 17595 ft | 379 kts | 250° |
| 2026-05-09 08:52 | 20.88085 | 105.72513 | 18139 ft | 383 kts | 250° |
| 2026-05-09 08:53 | 20.87190 | 105.69822 | 18673 ft | 386 kts | 250° |
| 2026-05-09 08:53 | 20.86290 | 105.67111 | 19212 ft | 389 kts | 250° |
| 2026-05-09 08:53 | 20.85382 | 105.64376 | 19743 ft | 392 kts | 250° |
| 2026-05-09 08:53 | 20.84469 | 105.61623 | 20267 ft | 394 kts | 250° |
| 2026-05-09 08:54 | 20.83548 | 105.58850 | 20780 ft | 397 kts | 250° |
| 2026-05-09 08:54 | 20.82620 | 105.56055 | 21285 ft | 401 kts | 250° |
| 2026-05-09 08:54 | 20.81686 | 105.53238 | 21786 ft | 403 kts | 250° |
| 2026-05-09 08:54 | 20.80748 | 105.50406 | 22264 ft | 406 kts | 250° |
| 2026-05-09 08:55 | 20.79800 | 105.47550 | 22730 ft | 409 kts | 250° |
| 2026-05-09 08:55 | 20.78844 | 105.44675 | 23182 ft | 412 kts | 250° |
| 2026-05-09 08:55 | 20.77882 | 105.41783 | 23608 ft | 414 kts | 250° |
| 2026-05-09 08:55 | 20.76911 | 105.38877 | 24016 ft | 417 kts | 250° |
| 2026-05-09 08:56 | 20.75928 | 105.35952 | 24416 ft | 419 kts | 250° |
| 2026-05-09 08:56 | 20.74941 | 105.33014 | 24797 ft | 422 kts | 250° |
| 2026-05-09 08:56 | 20.73952 | 105.30056 | 25182 ft | 424 kts | 250° |
| 2026-05-09 08:56 | 20.72959 | 105.27082 | 25555 ft | 426 kts | 250° |
| 2026-05-09 08:57 | 20.71960 | 105.24095 | 25896 ft | 428 kts | 250° |
| 2026-05-09 08:57 | 20.70955 | 105.21095 | 26256 ft | 430 kts | 250° |
| 2026-05-09 08:57 | 20.69947 | 105.18083 | 26579 ft | 432 kts | 250° |
| 2026-05-09 08:57 | 20.68934 | 105.15050 | 26917 ft | 434 kts | 250° |
| 2026-05-09 08:58 | 20.67917 | 105.12006 | 27235 ft | 436 kts | 250° |
| 2026-05-09 08:58 | 20.66894 | 105.08949 | 27539 ft | 438 kts | 250° |
| 2026-05-09 08:58 | 20.65860 | 105.05880 | 27847 ft | 440 kts | 250° |
| 2026-05-09 08:58 | 20.64820 | 105.02798 | 28139 ft | 442 kts | 250° |
| 2026-05-09 08:59 | 20.63779 | 104.99703 | 28448 ft | 444 kts | 250° |
| 2026-05-09 08:59 | 20.62735 | 104.96595 | 28752 ft | 446 kts | 250° |
| 2026-05-09 08:59 | 20.61682 | 104.93473 | 29049 ft | 448 kts | 250° |
| 2026-05-09 08:59 | 20.60623 | 104.90338 | 29351 ft | 450 kts | 250° |
| 2026-05-09 09:00 | 20.59559 | 104.87190 | 29649 ft | 452 kts | 250° |
| 2026-05-09 09:00 | 20.58490 | 104.84028 | 29943 ft | 454 kts | 250° |
| 2026-05-09 09:00 | 20.57418 | 104.80855 | 30219 ft | 456 kts | 250° |
| 2026-05-09 09:00 | 20.56342 | 104.77665 | 30487 ft | 458 kts | 250° |
| 2026-05-09 09:01 | 20.55255 | 104.74440 | 30028 ft | 473 kts | 250° |
| 2026-05-09 09:01 | 20.54139 | 104.71126 | 30409 ft | 469 kts | 250° |
| 2026-05-09 09:01 | 20.53040 | 104.67870 | 30921 ft | 465 kts | 250° |
| 2026-05-09 09:01 | 20.51948 | 104.64642 | 31395 ft | 461 kts | 250° |
| 2026-05-09 09:02 | 20.50861 | 104.61436 | 31854 ft | 458 kts | 250° |
| 2026-05-09 09:02 | 20.49776 | 104.58244 | 32260 ft | 457 kts | 250° |
| 2026-05-09 09:02 | 20.48694 | 104.55069 | 32656 ft | 455 kts | 250° |
| 2026-05-09 09:02 | 20.47614 | 104.51899 | 33050 ft | 454 kts | 250° |
| 2026-05-09 09:03 | 20.46538 | 104.48738 | 33445 ft | 453 kts | 250° |
| 2026-05-09 09:03 | 20.45466 | 104.45582 | 33862 ft | 452 kts | 250° |
| 2026-05-09 09:03 | 20.44191 | 104.42525 | 34245 ft | 452 kts | 241° |
| 2026-05-09 09:03 | 20.42445 | 104.39748 | 34619 ft | 451 kts | 231° |
| 2026-05-09 09:04 | 20.40278 | 104.37332 | 34971 ft | 452 kts | 222° |
| 2026-05-09 09:04 | 20.37784 | 104.35287 | 35312 ft | 452 kts | 217° |
| 2026-05-09 09:04 | 20.35241 | 104.33320 | 35650 ft | 451 kts | 217° |
| 2026-05-09 09:04 | 20.32705 | 104.31348 | 35898 ft | 452 kts | 218° |
| 2026-05-09 09:05 | 20.30173 | 104.29370 | 35952 ft | 452 kts | 218° |
| 2026-05-09 09:05 | 20.25104 | 104.25411 | 35951 ft | 452 kts | 218° |
| 2026-05-09 09:06 | 20.20029 | 104.21465 | 35952 ft | 452 kts | 218° |
| 2026-05-09 09:06 | 20.14944 | 104.17518 | 35945 ft | 452 kts | 218° |
| 2026-05-09 09:07 | 20.09864 | 104.13572 | 35944 ft | 452 kts | 218° |
| 2026-05-09 09:07 | 20.04785 | 104.09620 | 35944 ft | 452 kts | 218° |
| 2026-05-09 09:08 | 19.99702 | 104.05673 | 35949 ft | 453 kts | 218° |
| 2026-05-09 09:08 | 19.94614 | 104.01729 | 35948 ft | 453 kts | 217° |
| 2026-05-09 09:09 | 19.89555 | 103.97815 | 35945 ft | 453 kts | 218° |
| 2026-05-09 09:09 | 19.84466 | 103.93878 | 35938 ft | 453 kts | 217° |
| 2026-05-09 09:10 | 19.79371 | 103.89949 | 35935 ft | 453 kts | 217° |
| 2026-05-09 09:10 | 19.74277 | 103.86020 | 35922 ft | 453 kts | 217° |
| 2026-05-09 09:11 | 19.69185 | 103.82088 | 35913 ft | 453 kts | 217° |
| 2026-05-09 09:11 | 19.64092 | 103.78161 | 35905 ft | 453 kts | 217° |
| 2026-05-09 09:12 | 19.58992 | 103.74230 | 35901 ft | 453 kts | 217° |
| 2026-05-09 09:12 | 19.53898 | 103.70312 | 35896 ft | 452 kts | 217° |
| 2026-05-09 09:13 | 19.48801 | 103.66399 | 35895 ft | 452 kts | 217° |
| 2026-05-09 09:13 | 19.43706 | 103.62477 | 35896 ft | 453 kts | 217° |
| 2026-05-09 09:14 | 19.38609 | 103.58554 | 35892 ft | 453 kts | 217° |
| 2026-05-09 09:14 | 19.33513 | 103.54648 | 35888 ft | 452 kts | 217° |
| 2026-05-09 09:15 | 19.28412 | 103.50744 | 35887 ft | 452 kts | 217° |
| 2026-05-09 09:15 | 19.23320 | 103.46846 | 35884 ft | 452 kts | 217° |
| 2026-05-09 09:16 | 19.18221 | 103.42944 | 35885 ft | 452 kts | 217° |
| 2026-05-09 09:16 | 19.10572 | 103.37093 | 35882 ft | 452 kts | 217° |
| 2026-05-09 09:17 | 19.05472 | 103.33196 | 35877 ft | 452 kts | 217° |
| 2026-05-09 09:17 | 19.00374 | 103.29305 | 35878 ft | 452 kts | 217° |
| 2026-05-09 09:18 | 18.95271 | 103.25410 | 35868 ft | 452 kts | 217° |
| 2026-05-09 09:18 | 18.90171 | 103.21516 | 35880 ft | 452 kts | 217° |
| 2026-05-09 09:19 | 18.85063 | 103.17631 | 35870 ft | 452 kts | 217° |
| 2026-05-09 09:19 | 18.79955 | 103.13750 | 35864 ft | 452 kts | 217° |
| 2026-05-09 09:20 | 18.74845 | 103.09866 | 35876 ft | 452 kts | 217° |
| 2026-05-09 09:20 | 18.69735 | 103.05984 | 35851 ft | 453 kts | 216° |
| 2026-05-09 09:21 | 18.64618 | 103.02087 | 35850 ft | 454 kts | 217° |
| 2026-05-09 09:21 | 18.59491 | 102.98194 | 35847 ft | 454 kts | 216° |
| 2026-05-09 09:22 | 18.54354 | 102.94305 | 35844 ft | 455 kts | 216° |
| 2026-05-09 09:22 | 18.49214 | 102.90419 | 35853 ft | 455 kts | 216° |
| 2026-05-09 09:23 | 18.44081 | 102.86523 | 35851 ft | 455 kts | 216° |
| 2026-05-09 09:23 | 18.38939 | 102.82631 | 35844 ft | 455 kts | 216° |
| 2026-05-09 09:24 | 18.33793 | 102.78748 | 35847 ft | 455 kts | 216° |
| 2026-05-09 09:24 | 18.28647 | 102.74864 | 35845 ft | 455 kts | 216° |
| 2026-05-09 09:25 | 18.23497 | 102.70973 | 35847 ft | 456 kts | 216° |
| 2026-05-09 09:25 | 18.18348 | 102.67090 | 35842 ft | 455 kts | 216° |
| 2026-05-09 09:26 | 18.13196 | 102.63206 | 35842 ft | 456 kts | 216° |
| 2026-05-09 09:26 | 18.08048 | 102.59328 | 35850 ft | 455 kts | 216° |
| 2026-05-09 09:27 | 18.02906 | 102.55457 | 35847 ft | 455 kts | 215° |
| 2026-05-09 09:27 | 17.98243 | 102.52905 | 35842 ft | 456 kts | 201° |
| 2026-05-09 09:28 | 17.92314 | 102.50519 | 35839 ft | 457 kts | 201° |
| 2026-05-09 09:28 | 17.86375 | 102.48130 | 35836 ft | 457 kts | 201° |
| 2026-05-09 09:29 | 17.80434 | 102.45733 | 35837 ft | 458 kts | 201° |
| 2026-05-09 09:29 | 17.74490 | 102.43333 | 35841 ft | 458 kts | 201° |
| 2026-05-09 09:30 | 17.68539 | 102.40933 | 35840 ft | 458 kts | 201° |
| 2026-05-09 09:30 | 17.62592 | 102.38539 | 35845 ft | 458 kts | 201° |
| 2026-05-09 09:31 | 17.56639 | 102.36147 | 35842 ft | 458 kts | 201° |
| 2026-05-09 09:32 | 17.47721 | 102.32552 | 35852 ft | 458 kts | 201° |
| 2026-05-09 09:32 | 17.41766 | 102.30163 | 35855 ft | 458 kts | 201° |
| 2026-05-09 09:33 | 17.35818 | 102.27778 | 35846 ft | 458 kts | 201° |
| 2026-05-09 09:33 | 17.29871 | 102.25386 | 35853 ft | 458 kts | 201° |
| 2026-05-09 09:34 | 17.23922 | 102.23000 | 35855 ft | 458 kts | 201° |
| 2026-05-09 09:34 | 17.17971 | 102.20620 | 35857 ft | 458 kts | 201° |
| 2026-05-09 09:36 | 16.94150 | 102.11104 | 35866 ft | 458 kts | 201° |
| 2026-05-09 09:37 | 16.88196 | 102.08720 | 35863 ft | 459 kts | 201° |
| 2026-05-09 09:37 | 16.82236 | 102.06336 | 35858 ft | 458 kts | 201° |
| 2026-05-09 09:38 | 16.76276 | 102.03962 | 35864 ft | 459 kts | 201° |
| 2026-05-09 09:38 | 16.70303 | 102.01588 | 35854 ft | 464 kts | 201° |
| 2026-05-09 09:39 | 16.64302 | 101.98928 | 35863 ft | 474 kts | 211° |
| 2026-05-09 09:39 | 16.59158 | 101.94631 | 35861 ft | 477 kts | 224° |
| 2026-05-09 09:40 | 16.54325 | 101.89869 | 35854 ft | 478 kts | 222° |
| 2026-05-09 09:40 | 16.51661 | 101.87816 | 35645 ft | 476 kts | 209° |
| 2026-05-09 09:40 | 16.48653 | 101.86428 | 35314 ft | 474 kts | 202° |
| 2026-05-09 09:40 | 16.45575 | 101.85135 | 34965 ft | 478 kts | 202° |
| 2026-05-09 09:41 | 16.42481 | 101.83829 | 34599 ft | 481 kts | 202° |
| 2026-05-09 09:41 | 16.39379 | 101.82510 | 34231 ft | 482 kts | 202° |
| 2026-05-09 09:41 | 16.36275 | 101.81179 | 33849 ft | 483 kts | 202° |
| 2026-05-09 09:41 | 16.33162 | 101.79838 | 33474 ft | 484 kts | 202° |
| 2026-05-09 09:42 | 16.30047 | 101.78498 | 33101 ft | 485 kts | 202° |
| 2026-05-09 09:42 | 16.26921 | 101.77159 | 32713 ft | 486 kts | 202° |
| 2026-05-09 09:42 | 16.23785 | 101.75821 | 32345 ft | 487 kts | 202° |
| 2026-05-09 09:42 | 16.20649 | 101.74483 | 31974 ft | 488 kts | 202° |
| 2026-05-09 09:43 | 16.17506 | 101.73145 | 31597 ft | 488 kts | 202° |
| 2026-05-09 09:43 | 16.14365 | 101.71811 | 31222 ft | 489 kts | 202° |
| 2026-05-09 09:43 | 16.11217 | 101.70475 | 30869 ft | 488 kts | 202° |
| 2026-05-09 09:43 | 16.08077 | 101.69140 | 30564 ft | 486 kts | 202° |
| 2026-05-09 09:44 | 16.04952 | 101.67810 | 30289 ft | 485 kts | 202° |
| 2026-05-09 09:44 | 16.01829 | 101.66479 | 30021 ft | 487 kts | 202° |
| 2026-05-09 09:44 | 15.98681 | 101.65137 | 29737 ft | 491 kts | 202° |
| 2026-05-09 09:44 | 15.95514 | 101.63788 | 29458 ft | 492 kts | 202° |
| 2026-05-09 09:45 | 15.92355 | 101.62445 | 29183 ft | 490 kts | 202° |
| 2026-05-09 09:45 | 15.89203 | 101.61107 | 28909 ft | 488 kts | 202° |
| 2026-05-09 09:45 | 15.86069 | 101.59774 | 28635 ft | 486 kts | 202° |
| 2026-05-09 09:45 | 15.82939 | 101.58444 | 28359 ft | 485 kts | 202° |
| 2026-05-09 09:46 | 15.79795 | 101.57111 | 28083 ft | 492 kts | 202° |
| 2026-05-09 09:46 | 15.76617 | 101.55764 | 27801 ft | 493 kts | 202° |
| 2026-05-09 09:46 | 15.73447 | 101.54423 | 27525 ft | 492 kts | 202° |
| 2026-05-09 09:46 | 15.70283 | 101.53085 | 27248 ft | 490 kts | 202° |
| 2026-05-09 09:47 | 15.67125 | 101.51749 | 26974 ft | 492 kts | 202° |
| 2026-05-09 09:47 | 15.63951 | 101.50405 | 26697 ft | 494 kts | 202° |
| 2026-05-09 09:47 | 15.60768 | 101.49054 | 26414 ft | 493 kts | 202° |
| 2026-05-09 09:47 | 15.57599 | 101.47709 | 26146 ft | 492 kts | 202° |
| 2026-05-09 09:48 | 15.54439 | 101.46368 | 25870 ft | 490 kts | 202° |
| 2026-05-09 09:48 | 15.51293 | 101.45036 | 25594 ft | 488 kts | 202° |
| 2026-05-09 09:48 | 15.48114 | 101.43693 | 25317 ft | 496 kts | 202° |
| 2026-05-09 09:48 | 15.44909 | 101.42339 | 25027 ft | 498 kts | 202° |
| 2026-05-09 09:49 | 15.41692 | 101.40981 | 24727 ft | 501 kts | 202° |
| 2026-05-09 09:49 | 15.38466 | 101.39619 | 24426 ft | 500 kts | 202° |
| 2026-05-09 09:49 | 15.35254 | 101.38262 | 24126 ft | 498 kts | 202° |
| 2026-05-09 09:49 | 15.32052 | 101.36910 | 23828 ft | 496 kts | 202° |
| 2026-05-09 09:50 | 15.28865 | 101.35563 | 23520 ft | 494 kts | 202° |
| 2026-05-09 09:50 | 15.25689 | 101.34219 | 23222 ft | 492 kts | 202° |
| 2026-05-09 09:50 | 15.22530 | 101.32886 | 22923 ft | 489 kts | 202° |
| 2026-05-09 09:50 | 15.19386 | 101.31558 | 22623 ft | 487 kts | 202° |
| 2026-05-09 09:51 | 15.16250 | 101.30234 | 22320 ft | 483 kts | 202° |
| 2026-05-09 09:51 | 15.13163 | 101.28933 | 22019 ft | 476 kts | 202° |
| 2026-05-09 09:51 | 15.10106 | 101.27645 | 21718 ft | 473 kts | 202° |
| 2026-05-09 09:51 | 15.07072 | 101.26364 | 21417 ft | 470 kts | 202° |
| 2026-05-09 09:52 | 15.04051 | 101.25090 | 21117 ft | 468 kts | 202° |
| 2026-05-09 09:52 | 15.01041 | 101.23823 | 20816 ft | 466 kts | 202° |
| 2026-05-09 09:52 | 14.98052 | 101.22567 | 20516 ft | 464 kts | 202° |
| 2026-05-09 09:52 | 14.95067 | 101.21310 | 20215 ft | 462 kts | 202° |
| 2026-05-09 09:53 | 14.92098 | 101.20061 | 19916 ft | 460 kts | 202° |
| 2026-05-09 09:53 | 14.89141 | 101.18821 | 19627 ft | 457 kts | 202° |
| 2026-05-09 09:53 | 14.86200 | 101.17588 | 19360 ft | 456 kts | 201° |
| 2026-05-09 09:53 | 14.83263 | 101.16359 | 19045 ft | 454 kts | 202° |
| 2026-05-09 09:54 | 14.80321 | 101.15124 | 18760 ft | 460 kts | 202° |
| 2026-05-09 09:54 | 14.77350 | 101.13874 | 18461 ft | 461 kts | 202° |
| 2026-05-09 09:54 | 14.74382 | 101.12625 | 18156 ft | 460 kts | 202° |
| 2026-05-09 09:54 | 14.71421 | 101.11378 | 17857 ft | 458 kts | 202° |
| 2026-05-09 09:55 | 14.68477 | 101.10138 | 17555 ft | 456 kts | 202° |